Allemand, Louisiana
Current Conditions -  °F | °C
As of 9:35 PM on Saturday 25 Oct 2014 (Local Time) from KHUM Reporting Station
Clear Clear  
Wind Chill: 15°   Ceiling: Unl
Heat Index: 15°   Visibility: 10mi
Dew Point: 14°   Wind: 0mph
Humidity: 93%   Direction: NA
Pressure: 30.1"   Gusts: NA
Location:  29.5867°N, 90.8252°W
Report Text: KHUM 260235Z AUTO 00000KT 10SM CLR 15/14 A3010 RMK AO2 T01520141
Loading
Personal Weather Stations






























Interactive Weather Map
Tropical Storm Tracking
New forecast layout! Learn more

10-Day Weather Forecast

Advertisements
Track Severe Weather on mobile